Time;durP1;ratioP1;P1;durP2;ratioP2;P2;SDS_P1;SDS_P2;PMS_P1;PMS_P2;Temp;Humidity;BMP_temperature;BMP_pressure;BME280_temperature;BME280_humidity;BME280_pressure;Samples;Min_cycle;Max_cycle;Signal;HPM_P1;HPM_P2
2022/06/24 00:00:00;;;;;;;;;;;;;;;11.98;89.33;98078.31;1736992;82;20189;-82
2022/06/24 00:02:25;;;;;;;;;;;;;;;11.98;88.82;98084.55;1722392;81;20177;-82
2022/06/24 00:04:55;;;;;;;;;;;;;;;11.96;87.75;98087.27;1740290;82;21160;-86
2022/06/24 00:07:21;;;;;;;;;;;;;;;11.93;87.65;98078.34;1731141;82;20214;-86
2022/06/24 00:09:47;;;;;;;;;;;;;;;11.91;88.41;98080.55;1741902;82;20281;-82
2022/06/24 00:12:15;;;;;;;;;;;;;;;11.86;88.34;98079.48;1728069;81;20429;-86
2022/06/24 00:14:42;;;;;;;;;;;;;;;11.82;89.56;98081.16;1674734;85;20177;-82
2022/06/24 00:17:09;;;;;;;;;;;;;;;11.76;89.77;98078.74;1660246;85;21070;-82
2022/06/24 00:19:37;;;;;;;;;;;;;;;11.76;86.53;98087.70;1686194;84;20148;-86
2022/06/24 00:22:15;;;;;;;;;;;;;;;11.74;85.78;98083.11;1687263;83;20221;-86
2022/06/24 00:24:39;;;;;;;;;;;;;;;11.71;84.40;98085.59;1694912;84;20196;-86
2022/06/24 00:27:23;;;;;;;;;;;;;;;11.66;87.29;98089.15;1689964;83;20166;-86
2022/06/24 00:29:52;;;;;;;;;;;;;;;11.64;86.42;98080.48;1689981;84;21074;-82
2022/06/24 00:32:31;;;;;;;;;;;;;;;11.65;86.82;98080.75;1699442;84;20188;-82
2022/06/24 00:35:05;;;;;;;;;;;;;;;11.65;85.42;98079.94;1708734;83;20201;-86
2022/06/24 00:37:31;;;;;;;;;;;;;;;11.64;87.26;98083.75;1708599;82;20177;-86
2022/06/24 00:40:13;;;;;;;;;;;;;;;11.57;89.05;98078.65;1684652;85;20218;-85
2022/06/24 00:42:40;;;;;;;;;;;;;;;11.54;89.83;98075.16;1684545;85;21137;-85
2022/06/24 00:45:34;;;;;;;;;;;;;;;11.52;90.32;98080.03;1684588;85;20207;-82
2022/06/24 00:48:00;;;;;;;;;;;;;;;11.46;90.88;98075.22;1680998;83;20183;-86
2022/06/24 00:50:27;;;;;;;;;;;;;;;11.41;91.23;98080.67;1684821;85;20470;-82
2022/06/24 00:52:55;;;;;;;;;;;;;;;11.38;90.83;98076.38;1697624;84;20196;-85
2022/06/24 00:55:27;;;;;;;;;;;;;;;11.37;89.43;98077.47;1709277;83;21073;-82
2022/06/24 00:57:53;;;;;;;;;;;;;;;11.35;89.54;98078.27;1675363;85;20200;-82
2022/06/24 01:00:19;;;;;;;;;;;;;;;11.34;90.56;98072.59;1684718;84;20419;-82
2022/06/24 01:02:46;;;;;;;;;;;;;;;11.32;90.22;98074.78;1660460;85;20185;-82
2022/06/24 01:05:12;;;;;;;;;;;;;;;11.31;89.91;98076.69;1661904;85;20214;-85
2022/06/24 01:07:38;;;;;;;;;;;;;;;11.32;88.91;98072.87;1682381;84;21896;-85
2022/06/24 01:10:06;;;;;;;;;;;;;;;11.28;90.52;98079.97;1697594;84;20160;-86
2022/06/24 01:12:32;;;;;;;;;;;;;;;11.23;90.71;98072.67;1697252;83;20205;-82
2022/06/24 01:14:58;;;;;;;;;;;;;;;11.15;91.12;98074.63;1686463;84;20146;-82
2022/06/24 01:17:23;;;;;;;;;;;;;;;11.15;90.51;98075.17;1679537;84;20250;-86
2022/06/24 01:19:49;;;;;;;;;;;;;;;11.11;89.55;98072.74;1678038;84;21145;-82
2022/06/24 01:22:23;;;;;;;;;;;;;;;11.05;90.41;98061.14;1685101;84;20762;-82
2022/06/24 01:24:49;;;;;;;;;;;;;;;11.01;90.88;98063.59;1697102;84;20213;-85
2022/06/24 01:27:14;;;;;;;;;;;;;;;10.98;90.86;98065.52;1697505;83;20743;-81
2022/06/24 01:29:40;;;;;;;;;;;;;;;10.96;91.85;98058.76;1697817;83;20511;-85
2022/06/24 01:32:06;;;;;;;;;;;;;;;10.95;91.68;98056.59;1697604;83;21073;-82
2022/06/24 01:34:32;;;;;;;;;;;;;;;10.95;88.12;98057.14;1697049;84;20413;-82
2022/06/24 01:36:58;;;;;;;;;;;;;;;10.93;89.50;98053.33;1697310;83;20786;-83
2022/06/24 01:39:24;;;;;;;;;;;;;;;10.93;91.83;98053.33;1697741;84;20532;-82
2022/06/24 01:41:50;;;;;;;;;;;;;;;10.92;91.65;98047.65;1692743;84;20181;-86
2022/06/24 01:44:16;;;;;;;;;;;;;;;10.91;93.20;98046.03;1697728;84;21073;-82
2022/06/24 01:46:42;;;;;;;;;;;;;;;10.89;92.33;98044.16;1686005;83;20214;-86
2022/06/24 01:49:08;;;;;;;;;;;;;;;10.87;92.40;98050.95;1697731;84;20237;-82
2022/06/24 01:51:34;;;;;;;;;;;;;;;10.82;92.46;98041.48;1695259;84;20691;-82
2022/06/24 01:53:59;;;;;;;;;;;;;;;10.80;92.98;98043.67;1697664;84;20887;-85
2022/06/24 01:56:25;;;;;;;;;;;;;;;10.76;93.04;98041.25;1695085;84;21100;-82
2022/06/24 01:58:51;;;;;;;;;;;;;;;10.73;92.72;98047.50;1697547;84;20201;-82
2022/06/24 02:01:17;;;;;;;;;;;;;;;10.72;93.05;98045.07;1697512;84;20197;-82
2022/06/24 02:03:43;;;;;;;;;;;;;;;10.65;93.84;98051.34;1697404;84;20466;-82
2022/06/24 02:06:10;;;;;;;;;;;;;;;10.62;91.92;98050.55;1697478;84;20176;-82
2022/06/24 02:08:36;;;;;;;;;;;;;;;10.62;89.11;98051.91;1697551;83;21841;-86
2022/06/24 02:13:46;;;;;;;;;;;;;;;10.59;91.32;98049.19;1697331;83;20210;-86
2022/06/24 02:16:12;;;;;;;;;;;;;;;10.59;91.58;98044.31;1663185;84;20206;-82
2022/06/24 02:18:38;;;;;;;;;;;;;;;10.53;92.95;98043.55;1674730;84;20264;-85
2022/06/24 02:21:04;;;;;;;;;;;;;;;10.48;93.50;98045.47;1696556;84;21151;-82
2022/06/24 02:23:30;;;;;;;;;;;;;;;10.46;92.83;98045.75;1697313;83;20247;-85
2022/06/24 02:25:56;;;;;;;;;;;;;;;10.42;92.65;98042.80;1697539;84;20173;-82
2022/06/24 02:28:22;;;;;;;;;;;;;;;10.43;92.39;98041.70;1697247;84;20166;-85
2022/06/24 02:30:48;;;;;;;;;;;;;;;10.41;92.39;98041.15;1694980;84;20216;-82
2022/06/24 02:33:13;;;;;;;;;;;;;;;10.40;91.79;98035.47;1697224;83;21054;-82
2022/06/24 02:35:40;;;;;;;;;;;;;;;10.37;90.24;98040.64;1697535;84;20247;-86
2022/06/24 02:38:06;;;;;;;;;;;;;;;10.31;88.59;98039.84;1697126;83;20167;-82
2022/06/24 02:40:51;;;;;;;;;;;;;;;10.28;88.83;98036.89;1697406;84;20159;-81
2022/06/24 02:43:28;;;;;;;;;;;;;;;10.23;88.27;98032.84;1698173;83;20193;-85
2022/06/24 02:45:58;;;;;;;;;;;;;;;10.23;88.63;98029.58;1697491;84;21797;-82
2022/06/24 02:48:24;;;;;;;;;;;;;;;10.23;92.01;98040.96;1689069;84;20154;-85
2022/06/24 02:50:51;;;;;;;;;;;;;;;10.24;92.48;98042.03;1682340;84;20239;-85
2022/06/24 02:53:17;;;;;;;;;;;;;;;10.26;92.72;98045.30;1697324;83;20145;-86
2022/06/24 02:55:44;;;;;;;;;;;;;;;10.28;93.99;98041.77;1696697;84;20198;-85
2022/06/24 02:58:10;;;;;;;;;;;;;;;10.31;91.35;98037.69;1697215;84;21065;-82
2022/06/24 03:00:39;;;;;;;;;;;;;;;10.33;92.06;98042.27;1697744;84;20199;-85
2022/06/24 03:03:04;;;;;;;;;;;;;;;10.32;92.15;98039.30;1696979;84;20171;-85
2022/06/24 03:05:29;;;;;;;;;;;;;;;10.32;91.59;98044.72;1697553;84;20426;-85
2022/06/24 03:07:55;;;;;;;;;;;;;;;10.33;92.45;98046.33;1697252;83;20191;-82
2022/06/24 03:10:21;;;;;;;;;;;;;;;10.32;93.08;98053.65;1693989;84;21095;-82
2022/06/24 03:12:47;;;;;;;;;;;;;;;10.31;92.34;98054.73;1673420;84;20259;-82
2022/06/24 03:15:12;;;;;;;;;;;;;;;10.31;91.42;98050.67;1693486;84;20264;-85
2022/06/24 03:17:38;;;;;;;;;;;;;;;10.32;91.16;98052.84;1691873;83;20224;-86
2022/06/24 03:20:05;;;;;;;;;;;;;;;10.29;92.60;98049.34;1697651;84;20160;-82
2022/06/24 03:22:31;;;;;;;;;;;;;;;10.29;92.93;98054.77;1702850;83;21973;-85
2022/06/24 03:24:57;;;;;;;;;;;;;;;10.35;92.23;98055.02;1701713;83;20214;-85
2022/06/24 03:27:23;;;;;;;;;;;;;;;10.42;90.66;98051.44;1697542;83;20209;-85
2022/06/24 03:29:48;;;;;;;;;;;;;;;10.49;90.97;98053.31;1697749;84;20229;-81
2022/06/24 03:32:14;;;;;;;;;;;;;;;10.56;91.11;98050.30;1697774;84;20166;-86
2022/06/24 03:34:40;;;;;;;;;;;;;;;10.66;91.05;98044.83;1697621;84;21085;-85
2022/06/24 03:37:06;;;;;;;;;;;;;;;10.80;91.69;98050.45;1683264;84;20268;-85
2022/06/24 03:39:31;;;;;;;;;;;;;;;10.94;91.57;98048.20;1697571;84;20746;-85
2022/06/24 03:41:57;;;;;;;;;;;;;;;11.04;92.14;98045.16;1694936;84;20487;-82
2022/06/24 03:44:23;;;;;;;;;;;;;;;11.19;91.45;98048.55;1697710;84;20511;-85
2022/06/24 03:46:49;;;;;;;;;;;;;;;11.37;91.33;98047.08;1678130;83;21199;-82
2022/06/24 03:49:15;;;;;;;;;;;;;;;11.56;90.76;98055.32;1692916;84;20212;-85
2022/06/24 03:51:41;;;;;;;;;;;;;;;11.66;90.52;98059.30;1683134;84;20163;-82
2022/06/24 03:54:07;;;;;;;;;;;;;;;11.82;89.67;98051.84;1697591;84;20163;-85
2022/06/24 03:56:33;;;;;;;;;;;;;;;12.01;88.48;98052.73;1697621;84;20249;-81
2022/06/24 03:58:59;;;;;;;;;;;;;;;12.14;89.22;98048.53;1697355;84;21162;-85
2022/06/24 04:01:25;;;;;;;;;;;;;;;12.31;88.02;98043.99;1697522;84;20346;-82
2022/06/24 04:03:50;;;;;;;;;;;;;;;12.45;87.41;98046.25;1697396;83;20183;-86
2022/06/24 04:06:16;;;;;;;;;;;;;;;12.55;86.42;98046.11;1696535;83;20221;-86
2022/06/24 04:08:42;;;;;;;;;;;;;;;12.62;86.25;98052.55;1697485;84;20181;-86
2022/06/24 04:11:11;;;;;;;;;;;;;;;12.71;86.19;98059.77;1685236;84;21068;-81
2022/06/24 04:13:37;;;;;;;;;;;;;;;12.70;85.82;98056.79;1697258;84;20492;-81
2022/06/24 04:16:03;;;;;;;;;;;;;;;12.84;85.48;98056.08;1691562;84;20216;-82
2022/06/24 04:18:30;;;;;;;;;;;;;;;13.03;85.29;98052.80;1693202;84;21080;-82
2022/06/24 04:20:56;;;;;;;;;;;;;;;13.20;85.08;98052.31;1696196;84;20158;-86
2022/06/24 04:23:21;;;;;;;;;;;;;;;13.37;84.84;98046.33;1697639;83;21103;-85
2022/06/24 04:25:47;;;;;;;;;;;;;;;13.54;84.28;98051.48;1696819;83;20278;-87
2022/06/24 04:28:13;;;;;;;;;;;;;;;13.71;83.54;98056.37;1697740;84;20300;-82
2022/06/24 04:30:39;;;;;;;;;;;;;;;13.90;83.31;98055.49;1689831;84;20178;-82
2022/06/24 04:33:05;;;;;;;;;;;;;;;14.08;81.12;98054.61;1685775;84;20722;-86
2022/06/24 04:35:31;;;;;;;;;;;;;;;14.11;81.75;98048.57;1688800;84;21068;-86
2022/06/24 04:37:56;;;;;;;;;;;;;;;14.28;80.71;98054.23;1697431;83;20203;-81
2022/06/24 04:40:25;;;;;;;;;;;;;;;14.32;80.79;98047.61;1697682;84;20216;-82
2022/06/24 04:42:51;;;;;;;;;;;;;;;14.49;80.96;98045.66;1695336;83;20165;-86
2022/06/24 04:45:17;;;;;;;;;;;;;;;14.69;79.75;98042.50;1694508;84;20250;-82
2022/06/24 04:47:42;;;;;;;;;;;;;;;14.74;79.11;98038.31;1696229;83;21071;-86
2022/06/24 04:50:08;;;;;;;;;;;;;;;14.80;79.50;98043.91;1697753;84;20169;-83
2022/06/24 04:52:34;;;;;;;;;;;;;;;14.99;78.82;98040.22;1697529;82;20187;-82
2022/06/24 04:55:00;;;;;;;;;;;;;;;15.16;78.49;98041.17;1696679;84;20181;-85
2022/06/24 04:57:26;;;;;;;;;;;;;;;15.24;78.26;98037.70;1697816;83;20788;-82
2022/06/24 04:59:51;;;;;;;;;;;;;;;15.44;78.52;98039.69;1697766;84;21718;-83
2022/06/24 05:02:17;;;;;;;;;;;;;;;15.64;77.46;98041.97;1697502;83;20211;-86
2022/06/24 05:04:43;;;;;;;;;;;;;;;15.80;77.57;98036.33;1697695;83;20497;-82
2022/06/24 05:07:09;;;;;;;;;;;;;;;15.95;76.68;98035.69;1697012;84;20165;-82
2022/06/24 05:09:34;;;;;;;;;;;;;;;16.13;75.95;98036.57;1691283;83;20182;-86
2022/06/24 05:12:00;;;;;;;;;;;;;;;16.28;76.19;98036.95;1691242;84;21808;-86
2022/06/24 05:14:27;;;;;;;;;;;;;;;16.46;76.02;98035.64;1695804;84;20249;-86
2022/06/24 05:16:52;;;;;;;;;;;;;;;16.62;74.95;98036.25;1695070;84;20714;-86
2022/06/24 05:19:18;;;;;;;;;;;;;;;16.87;75.80;98033.35;1696729;84;21171;-86
2022/06/24 05:21:44;;;;;;;;;;;;;;;17.08;75.24;98034.08;1692990;83;20261;-87
2022/06/24 05:24:10;;;;;;;;;;;;;;;17.14;72.91;98021.85;1680894;84;21129;-86
2022/06/24 05:26:36;;;;;;;;;;;;;;;17.35;74.12;98027.50;1692304;84;20207;-86
2022/06/24 05:29:01;;;;;;;;;;;;;;;17.45;72.90;98024.42;1682564;84;20315;-87
2022/06/24 05:31:27;;;;;;;;;;;;;;;17.49;72.29;98021.26;1687719;84;20238;-86
2022/06/24 05:33:53;;;;;;;;;;;;;;;17.63;72.17;98023.26;1690689;84;20205;-82
2022/06/24 05:36:19;;;;;;;;;;;;;;;17.83;72.75;98030.00;1694682;84;21850;-86
2022/06/24 05:38:46;;;;;;;;;;;;;;;18.03;71.83;98023.83;1691994;83;20276;-86
2022/06/24 05:41:12;;;;;;;;;;;;;;;18.06;70.38;98018.25;1692963;83;20248;-86
2022/06/24 05:43:38;;;;;;;;;;;;;;;18.27;70.55;98023.22;1693075;82;20297;-87
2022/06/24 05:46:04;;;;;;;;;;;;;;;18.56;70.42;98023.02;1693102;83;20201;-86
2022/06/24 05:48:30;;;;;;;;;;;;;;;18.69;70.47;98022.55;1692159;83;21771;-87
2022/06/24 05:50:56;;;;;;;;;;;;;;;18.86;69.92;98019.69;1709120;82;20463;-86
2022/06/24 05:56:06;;;;;;;;;;;;;;;19.36;69.32;98016.07;1677142;84;20459;-86
2022/06/24 05:58:32;;;;;;;;;;;;;;;19.62;69.59;98013.10;1657131;85;20197;-87
2022/06/24 06:00:58;;;;;;;;;;;;;;;19.79;66.50;98015.67;1674217;84;21166;-87
2022/06/24 06:03:25;;;;;;;;;;;;;;;20.07;68.69;98018.58;1677656;84;20198;-83
2022/06/24 06:05:50;;;;;;;;;;;;;;;20.26;66.16;98016.09;1678016;84;20460;-82
2022/06/24 06:08:16;;;;;;;;;;;;;;;20.48;66.09;98009.34;1673685;84;20234;-82
2022/06/24 06:10:43;;;;;;;;;;;;;;;20.70;62.26;98010.03;1672642;84;20238;-83
2022/06/24 06:13:12;;;;;;;;;;;;;;;20.86;59.85;98004.05;1680576;83;20979;-82
2022/06/24 06:15:44;;;;;;;;;;;;;;;20.93;57.97;98009.74;1676247;84;20251;-82
2022/06/24 06:18:07;;;;;;;;;;;;;;;21.22;61.99;98005.89;1678433;84;20462;-82
2022/06/24 06:20:33;;;;;;;;;;;;;;;21.51;61.49;98004.76;1686691;84;20222;-82
2022/06/24 06:22:59;;;;;;;;;;;;;;;21.74;60.93;98001.44;1664514;83;20201;-82
2022/06/24 06:25:25;;;;;;;;;;;;;;;21.93;60.16;98003.72;1677158;84;21915;-82
2022/06/24 06:27:50;;;;;;;;;;;;;;;;;;1674455;84;20221;-83
2022/06/24 06:30:16;;;;;;;;;;;;;;;22.31;53.25;97994.08;1677464;84;20552;-88
2022/06/24 06:32:42;;;;;;;;;;;;;;;22.42;53.17;97997.89;1677857;84;20230;-88
2022/06/24 06:35:08;;;;;;;;;;;;;;;22.48;56.59;97995.66;1677530;84;20176;-88
2022/06/24 06:37:34;;;;;;;;;;;;;;;22.55;57.22;98004.09;1674527;84;21969;-87
2022/06/24 06:40:00;;;;;;;;;;;;;;;22.66;54.12;98002.98;1678664;84;20617;-88
2022/06/24 06:42:27;;;;;;;;;;;;;;;22.89;54.16;97997.58;1678708;85;20273;-82
2022/06/24 06:44:53;;;;;;;;;;;;;;;23.09;52.81;97992.31;1679888;84;20152;-83
2022/06/24 06:47:19;;;;;;;;;;;;;;;23.27;51.65;97996.83;1677499;84;20202;-82
2022/06/24 06:49:44;;;;;;;;;;;;;;;23.26;53.03;97995.23;1677092;84;21078;-83
2022/06/24 06:52:10;;;;;;;;;;;;;;;23.44;50.09;97987.30;1676972;84;21082;-83
2022/06/24 06:54:37;;;;;;;;;;;;;;;23.66;49.61;97985.17;1674737;84;20623;-83
2022/06/24 06:57:03;;;;;;;;;;;;;;;23.79;50.50;97981.08;1674948;84;20227;-83
2022/06/24 06:59:29;;;;;;;;;;;;;;;23.96;47.72;97988.69;1677235;84;20795;-83
2022/06/24 07:01:54;;;;;;;;;;;;;;;24.10;44.45;97984.80;1669119;84;21771;-83
2022/06/24 07:04:21;;;;;;;;;;;;;;;24.16;45.01;97977.17;1677393;84;20194;-83
2022/06/24 07:06:47;;;;;;;;;;;;;;;24.25;43.42;97978.89;1708067;82;20231;-82
2022/06/24 07:09:13;;;;;;;;;;;;;;;24.36;44.59;97970.22;1675857;84;20264;-83
2022/06/24 07:11:39;;;;;;;;;;;;;;;24.50;43.93;97976.55;1706052;82;20180;-82
2022/06/24 07:14:04;;;;;;;;;;;;;;;24.60;44.56;97970.36;1720053;82;21140;-83
2022/06/24 07:16:30;;;;;;;;;;;;;;;24.69;42.10;97964.77;1702599;83;20294;-83
2022/06/24 07:18:56;;;;;;;;;;;;;;;24.76;43.86;97972.38;1653634;84;21499;-83
2022/06/24 07:21:22;;;;;;;;;;;;;;;25.01;41.81;97974.91;1678777;84;20825;-83
2022/06/24 07:23:47;;;;;;;;;;;;;;;25.17;41.95;97977.52;1694706;82;20737;-83
2022/06/24 07:26:13;;;;;;;;;;;;;;;25.30;41.71;97975.31;1687329;84;21514;-83
2022/06/24 07:28:39;;;;;;;;;;;;;;;25.42;41.92;97968.70;1686897;83;20231;-83
2022/06/24 07:31:16;;;;;;;;;;;;;;;25.51;41.46;97976.94;1684178;84;20202;-83
2022/06/24 07:33:42;;;;;;;;;;;;;;;25.73;39.79;97961.36;1685917;83;20171;-83
2022/06/24 07:36:07;;;;;;;;;;;;;;;25.71;39.70;97969.24;1686467;83;20177;-83
2022/06/24 07:38:33;;;;;;;;;;;;;;;25.75;39.17;97952.65;1685486;83;21158;-83
2022/06/24 07:40:59;;;;;;;;;;;;;;;25.86;39.28;97960.48;1685889;84;20731;-83
2022/06/24 07:43:25;;;;;;;;;;;;;;;26.02;38.25;97955.47;1687292;85;20789;-89
2022/06/24 07:45:53;;;;;;;;;;;;;;;26.16;37.98;97954.81;1686444;84;20567;-88
2022/06/24 07:48:19;;;;;;;;;;;;;;;26.41;38.60;97956.42;1687081;83;20256;-89
2022/06/24 07:50:45;;;;;;;;;;;;;;;26.65;38.13;97955.77;1686973;84;21253;-87
2022/06/24 07:53:11;;;;;;;;;;;;;;;26.70;36.72;97953.23;1691337;83;20772;-89
2022/06/24 07:58:21;;;;;;;;;;;;;;;26.78;39.17;97946.53;1683131;83;21510;-89
2022/06/24 08:00:48;;;;;;;;;;;;;;;27.33;36.97;97945.60;1682417;84;20293;-89
2022/06/24 08:03:14;;;;;;;;;;;;;;;28.09;36.23;97937.81;1708333;82;21751;-89
2022/06/24 08:05:40;;;;;;;;;;;;;;;28.63;34.67;97940.60;1702343;82;20181;-89
2022/06/24 08:08:06;;;;;;;;;;;;;;;29.10;34.48;97934.30;1689830;82;20946;-90
2022/06/24 08:10:32;;;;;;;;;;;;;;;29.68;30.49;97939.82;1711836;82;20588;-89
2022/06/24 08:12:58;;;;;;;;;;;;;;;29.54;31.54;97929.52;1659007;84;20245;-90
2022/06/24 08:15:24;;;;;;;;;;;;;;;29.99;31.60;97921.23;1677182;84;21968;-90
2022/06/24 08:17:49;;;;;;;;;;;;;;;30.29;29.61;97922.02;1677473;84;20242;-89
2022/06/24 08:20:15;;;;;;;;;;;;;;;30.59;28.92;97922.71;1688047;83;20695;-88
2022/06/24 08:22:41;;;;;;;;;;;;;;;30.69;28.83;97914.88;1683401;84;20240;-84
2022/06/24 08:25:07;;;;;;;;;;;;;;;30.75;28.21;97917.38;1693027;82;20184;-84
2022/06/24 08:27:33;;;;;;;;;;;;;;;30.93;27.49;97921.38;1680430;83;21110;-84
2022/06/24 08:29:59;;;;;;;;;;;;;;;31.08;29.03;97908.02;1687854;84;20208;-84
2022/06/24 08:32:25;;;;;;;;;;;;;;;31.40;29.07;97906.23;1701174;82;20235;-84
2022/06/24 08:34:50;;;;;;;;;;;;;;;31.53;28.15;97903.63;1675538;84;20266;-84
2022/06/24 08:37:16;;;;;;;;;;;;;;;31.19;28.72;97910.06;1698290;82;20183;-84
2022/06/24 08:39:42;;;;;;;;;;;;;;;31.76;28.42;97908.50;1675931;85;21101;-84
2022/06/24 08:42:11;;;;;;;;;;;;;;;31.27;25.68;97907.38;1678595;83;20600;-84
2022/06/24 08:44:37;;;;;;;;;;;;;;;31.21;25.58;97903.48;1678950;84;20506;-84
2022/06/24 08:47:03;;;;;;;;;;;;;;;32.31;26.44;97902.47;1678825;85;20559;-84
2022/06/24 08:49:31;;;;;;;;;;;;;;;32.73;26.24;97902.28;1705288;82;20239;-84
2022/06/24 08:51:59;;;;;;;;;;;;;;;32.78;24.64;97898.96;1711441;82;21211;-84
2022/06/24 08:54:34;;;;;;;;;;;;;;;32.34;23.87;97890.39;1674946;83;20184;-84
2022/06/24 08:56:58;;;;;;;;;;;;;;;32.62;24.18;97888.27;1714350;82;20457;-84
2022/06/24 08:59:23;;;;;;;;;;;;;;;32.98;23.58;97882.77;1695547;83;20515;-84
2022/06/24 09:01:49;;;;;;;;;;;;;;;33.85;24.16;97883.27;1708778;82;20716;-84
2022/06/24 09:04:15;;;;;;;;;;;;;;;33.63;23.32;97886.57;1673163;84;20640;-84
2022/06/24 09:06:41;;;;;;;;;;;;;;;33.53;23.43;97878.41;1671230;84;20255;-84
2022/06/24 09:09:07;;;;;;;;;;;;;;;32.99;22.61;97871.75;1709786;82;20311;-84
2022/06/24 09:11:39;;;;;;;;;;;;;;;34.58;21.93;97878.22;1699613;82;20232;-84
2022/06/24 09:14:05;;;;;;;;;;;;;;;34.73;23.17;97874.57;1677593;84;20207;-84
2022/06/24 09:16:32;;;;;;;;;;;;;;;35.26;21.12;97865.83;1695307;82;21137;-84
2022/06/24 09:18:59;;;;;;;;;;;;;;;35.23;21.30;97870.34;1706738;82;20239;-84
2022/06/24 09:21:28;;;;;;;;;;;;;;;35.47;22.67;97867.25;1687979;84;20208;-84
2022/06/24 09:23:57;;;;;;;;;;;;;;;34.80;22.85;97863.74;1688438;83;20237;-89
2022/06/24 09:26:34;;;;;;;;;;;;;;;34.19;21.63;97870.20;1682386;85;20158;-90
2022/06/24 09:29:00;;;;;;;;;;;;;;;33.80;22.11;97873.95;1668296;85;22020;-90
2022/06/24 09:31:27;;;;;;;;;;;;;;;33.71;21.52;97864.72;1665918;84;20195;-91
2022/06/24 09:33:53;;;;;;;;;;;;;;;34.25;20.70;97871.84;1675243;83;20347;-90
2022/06/24 09:36:22;;;;;;;;;;;;;;;34.77;21.06;97866.80;1687412;83;20192;-90
2022/06/24 09:39:05;;;;;;;;;;;;;;;35.07;21.42;97860.57;1686878;83;20238;-90
2022/06/24 09:41:33;;;;;;;;;;;;;;;33.77;22.79;97867.81;1677656;83;22019;-89
2022/06/24 09:44:01;;;;;;;;;;;;;;;33.78;22.49;97875.01;1683130;83;20186;-88
2022/06/24 09:46:26;;;;;;;;;;;;;;;33.53;22.55;97868.57;1686474;83;20607;-90
2022/06/24 09:49:04;;;;;;;;;;;;;;;34.71;21.78;97860.78;1693484;83;20179;-90
2022/06/24 09:51:29;;;;;;;;;;;;;;;34.95;21.68;97849.47;1690294;83;20249;-91
2022/06/24 09:53:55;;;;;;;;;;;;;;;35.85;21.89;97853.13;1696872;83;21076;-90
2022/06/24 09:56:21;;;;;;;;;;;;;;;36.25;20.63;97855.45;1687189;83;20205;-91
2022/06/24 10:01:35;;;;;;;;;;;;;;;37.04;19.76;97852.03;1685471;83;20520;-89
2022/06/24 10:04:05;;;;;;;;;;;;;;;37.67;18.66;97861.45;1687654;83;20242;-90
2022/06/24 10:06:34;;;;;;;;;;;;;;;37.60;18.36;97852.47;1683388;80;21847;-89
2022/06/24 10:09:02;;;;;;;;;;;;;;;38.09;17.79;97852.48;1683679;83;20461;-91
2022/06/24 10:11:28;;;;;;;;;;;;;;;37.96;18.73;97844.78;1688320;83;20223;-91
2022/06/24 10:13:54;;;;;;;;;;;;;;;38.37;18.30;97841.41;1687311;83;20143;-92
2022/06/24 10:16:20;;;;;;;;;;;;;;;38.36;16.95;97836.20;1664406;85;20174;-90
2022/06/24 10:18:47;;;;;;;;;;;;;;;39.44;16.47;97838.59;1671425;83;21860;-91
2022/06/24 10:21:13;;;;;;;;;;;;;;;38.87;17.42;97832.11;1693908;83;20142;-91
2022/06/24 10:23:46;;;;;;;;;;;;;;;39.46;15.63;97835.42;1685463;83;20430;-89
2022/06/24 10:26:30;;;;;;;;;;;;;;;39.15;16.21;97825.02;1673342;84;20254;-92
2022/06/24 10:29:05;;;;;;;;;;;;;;;38.54;17.42;97836.83;1685311;83;20576;-90
2022/06/24 10:31:44;;;;;;;;;;;;;;;38.77;16.94;97829.14;1687715;83;21064;-91
2022/06/24 10:34:10;;;;;;;;;;;;;;;38.56;17.53;97823.80;1686593;83;20191;-91
2022/06/24 10:36:36;;;;;;;;;;;;;;;37.81;16.60;97823.38;1684721;83;20193;-91
2022/06/24 10:39:14;;;;;;;;;;;;;;;37.64;16.48;97822.83;1683864;83;21273;-92
2022/06/24 10:41:41;;;;;;;;;;;;;;;38.70;16.51;97812.47;1656100;83;20435;-90
2022/06/24 10:44:32;;;;;;;;;;;;;;;37.24;16.64;97815.73;1687016;84;21908;-91
2022/06/24 10:47:10;;;;;;;;;;;;;;;38.35;16.87;97811.37;1677375;83;20185;-91
2022/06/24 10:49:55;;;;;;;;;;;;;;;39.14;16.18;97804.40;1686415;84;20215;-90
2022/06/24 10:52:39;;;;;;;;;;;;;;;39.42;16.22;97799.41;1681756;83;20210;-91
2022/06/24 10:55:21;;;;;;;;;;;;;;;39.73;15.94;97803.34;1676597;84;20170;-90
2022/06/24 10:58:05;;;;;;;;;;;;;;;40.11;15.23;97791.95;1684208;84;21137;-91
2022/06/24 11:00:42;;;;;;;;;;;;;;;40.01;16.26;97791.24;1666687;84;20215;-92
2022/06/24 11:03:12;;;;;;;;;;;;;;;41.29;14.51;97797.03;1677557;85;20176;-90
2022/06/24 11:05:39;;;;;;;;;;;;;;;39.99;14.91;97795.14;1661773;83;20317;-91
2022/06/24 11:08:12;;;;;;;;;;;;;;;39.68;15.90;97791.27;1661483;84;20210;-91
2022/06/24 11:10:38;;;;;;;;;;;;;;;39.90;15.56;97788.12;1705772;83;21250;-90
2022/06/24 11:13:04;;;;;;;;;;;;;;;38.77;15.33;97781.02;1693829;83;20188;-91
2022/06/24 11:15:46;;;;;;;;;;;;;;;38.85;15.56;97772.97;1684612;84;20220;-91
2022/06/24 11:18:15;;;;;;;;;;;;;;;40.48;15.03;97775.42;1676011;83;20170;-90
2022/06/24 11:20:47;;;;;;;;;;;;;;;39.84;15.80;97772.27;1674929;84;20530;-91
2022/06/24 11:23:17;;;;;;;;;;;;;;;41.34;13.62;97767.27;1666794;84;21295;-91
2022/06/24 11:25:48;;;;;;;;;;;;;;;38.80;15.57;97760.86;1707999;82;20216;-91
2022/06/24 11:28:23;;;;;;;;;;;;;;;39.70;15.38;97761.01;1679544;83;20184;-91
2022/06/24 11:30:49;;;;;;;;;;;;;;;39.89;15.05;97754.58;1708295;82;20872;-91
2022/06/24 11:33:15;;;;;;;;;;;;;;;40.56;14.73;97749.64;1697864;82;20340;-91
2022/06/24 11:35:41;;;;;;;;;;;;;;;38.13;16.38;97747.08;1667631;84;22294;-91
2022/06/24 11:38:07;;;;;;;;;;;;;;;40.37;14.56;97753.13;1706576;83;20219;-90
2022/06/24 11:40:33;;;;;;;;;;;;;;;40.64;15.53;97750.67;1687131;83;20176;-91
2022/06/24 11:43:12;;;;;;;;;;;;;;;39.57;13.86;97743.44;1674652;84;20174;-92
2022/06/24 11:45:43;;;;;;;;;;;;;;;41.44;13.76;97748.02;1687333;84;20277;-92
2022/06/24 11:48:10;;;;;;;;;;;;;;;41.45;14.46;97747.38;1692116;84;21158;-89
2022/06/24 11:50:37;;;;;;;;;;;;;;;41.53;14.38;97745.05;1687392;84;20104;-89
2022/06/24 11:53:04;;;;;;;;;;;;;;;41.83;14.04;97742.12;1695261;83;20158;-91
2022/06/24 11:55:32;;;;;;;;;;;;;;;41.56;13.53;97747.56;1695585;84;20158;-91
2022/06/24 11:57:59;;;;;;;;;;;;;;;41.55;13.45;97743.16;1690205;83;20146;-90
2022/06/24 12:00:26;;;;;;;;;;;;;;;41.34;13.31;97734.58;1694850;84;21127;-92
2022/06/24 12:02:51;;;;;;;;;;;;;;;41.83;13.01;97724.42;1691660;83;20257;-92
2022/06/24 12:05:17;;;;;;;;;;;;;;;41.64;13.63;97726.74;1687205;84;20202;-92
2022/06/24 12:07:43;;;;;;;;;;;;;;;41.84;14.16;97723.78;1691867;83;21256;-91
2022/06/24 12:10:09;;;;;;;;;;;;;;;39.67;15.42;97716.63;1688972;83;20158;-91
2022/06/24 12:12:36;;;;;;;;;;;;;;;40.58;15.03;97717.92;1695255;83;21010;-90
2022/06/24 12:15:02;;;;;;;;;;;;;;;41.22;13.64;97719.27;1694704;84;20204;-92
2022/06/24 12:17:28;;;;;;;;;;;;;;;41.17;13.23;97719.30;1693911;84;20258;-91
2022/06/24 12:20:05;;;;;;;;;;;;;;;39.79;14.35;97712.75;1694574;84;20236;-91
2022/06/24 12:22:31;;;;;;;;;;;;;;;40.32;13.69;97709.16;1695557;84;20236;-91
2022/06/24 12:25:05;;;;;;;;;;;;;;;40.51;14.43;97702.72;1693983;83;21086;-91
2022/06/24 12:27:34;;;;;;;;;;;;;;;41.38;13.27;97710.23;1691497;84;20172;-91
2022/06/24 12:30:00;;;;;;;;;;;;;;;39.39;14.56;97700.38;1689970;84;20244;-91
2022/06/24 12:32:26;;;;;;;;;;;;;;;38.91;14.98;97699.66;1697937;82;20236;-91
2022/06/24 12:34:55;;;;;;;;;;;;;;;40.15;14.43;97702.39;1677070;84;20213;-91
2022/06/24 12:37:21;;;;;;;;;;;;;;;40.43;15.62;97686.69;1695247;83;21088;-86
2022/06/24 12:39:47;;;;;;;;;;;;;;;40.47;14.79;97687.29;1693107;83;20237;-86
2022/06/24 12:42:14;;;;;;;;;;;;;;;41.17;13.42;97693.73;1695066;83;20245;-91
2022/06/24 12:44:47;;;;;;;;;;;;;;;41.08;13.63;97682.49;1682352;82;20512;-91
2022/06/24 12:52:57;;;;;;;;;;;;;;;39.32;14.08;97668.18;1695333;83;20171;-91
2022/06/24 12:55:23;;;;;;;;;;;;;;;38.88;14.36;97677.95;1694779;83;20237;-91
2022/06/24 12:57:49;;;;;;;;;;;;;;;36.28;18.26;97685.31;1693805;84;20242;-90
2022/06/24 13:00:15;;;;;;;;;;;;;;;36.44;16.46;97680.91;1694437;84;20253;-89
2022/06/24 13:02:43;;;;;;;;;;;;;;;35.72;16.51;97675.63;1690838;83;21158;-91
2022/06/24 13:05:09;;;;;;;;;;;;;;;36.88;15.80;97675.97;1690946;83;20254;-91